createdAt,value
2019-01-30T00:01:48.200Z,8.57
2019-01-30T00:04:30.021Z,8.37
2019-01-30T00:07:11.787Z,5.87
2019-01-30T00:09:53.348Z,7.53
2019-01-30T00:12:35.616Z,5.90
2019-01-30T00:15:17.678Z,8.10
2019-01-30T00:17:59.884Z,6.90
2019-01-30T00:20:30.427Z,7.47
2019-01-30T00:23:19.791Z,6.50
2019-01-30T00:26:02.227Z,6.50
2019-01-30T00:28:44.015Z,6.53
2019-01-30T00:31:25.664Z,7.97
2019-01-30T00:34:07.792Z,7.83
2019-01-30T00:36:50.120Z,6.87
2019-01-30T00:39:32.213Z,8.10
2019-01-30T00:42:13.932Z,7.67
2019-01-30T00:44:56.042Z,6.00
2019-01-30T00:47:38.294Z,7.83
2019-01-30T00:50:20.563Z,10.73
2019-01-30T00:53:02.816Z,9.40
2019-01-30T00:55:44.645Z,6.43
2019-01-30T00:58:26.643Z,8.57
2019-01-30T01:01:08.887Z,6.97
2019-01-30T01:03:50.877Z,6.10
2019-01-30T01:06:33.343Z,7.67
2019-01-30T01:09:15.476Z,7.87
2019-01-30T01:11:57.587Z,8.30
2019-01-30T01:14:39.714Z,7.63
2019-01-30T01:17:23.152Z,8.07
2019-01-30T01:19:53.615Z,7.73
2019-01-30T01:22:44.816Z,7.60
2019-01-30T01:25:26.732Z,7.30
2019-01-30T01:28:08.392Z,11.77
2019-01-30T01:30:50.767Z,5.97
2019-01-30T01:33:33.057Z,6.07
2019-01-30T01:36:14.873Z,6.63
2019-01-30T01:38:57.217Z,8.47
2019-01-30T01:41:39.001Z,7.53
2019-01-30T01:44:21.273Z,6.80
2019-01-30T01:47:04.193Z,6.63
2019-01-30T01:49:46.358Z,11.40
2019-01-30T01:52:29.199Z,10.73
2019-01-30T01:55:11.593Z,7.67
2019-01-30T01:57:53.631Z,11.57
2019-01-30T02:00:35.859Z,8.50
2019-01-30T02:03:06.856Z,9.83
2019-01-30T02:05:37.157Z,14.97
2019-01-30T02:08:18.992Z,7.97
2019-01-30T02:11:01.257Z,16.23
2019-01-30T02:13:43.437Z,10.30
2019-01-30T02:16:25.272Z,11.23
2019-01-30T02:19:07.439Z,7.77
2019-01-30T02:21:49.792Z,11.10
2019-01-30T02:24:32.135Z,10.47
2019-01-30T02:27:14.397Z,10.57
2019-01-30T02:29:56.492Z,12.07
2019-01-30T02:32:38.196Z,9.73
2019-01-30T02:35:20.440Z,12.73
2019-01-30T02:38:02.622Z,10.07
2019-01-30T02:40:44.740Z,11.17
2019-01-30T02:43:26.684Z,12.00
2019-01-30T02:46:08.855Z,25.13
2019-01-30T02:48:51.113Z,11.47
2019-01-30T02:51:33.255Z,10.25
2019-01-30T02:54:15.827Z,11.17
2019-01-30T02:56:57.982Z,11.40
2019-01-30T02:59:40.256Z,13.87
2019-01-30T03:02:22.576Z,11.23
2019-01-30T03:05:04.524Z,14.67
2019-01-30T03:07:47.184Z,10.53
2019-01-30T03:10:29.605Z,13.13
2019-01-30T03:13:12.056Z,16.33
2019-01-30T03:15:54.324Z,12.43
2019-01-30T03:18:36.909Z,10.13
2019-01-30T03:21:18.696Z,14.60
2019-01-30T03:24:00.953Z,14.33
2019-01-30T03:26:42.928Z,11.97
2019-01-30T03:29:25.303Z,10.10
2019-01-30T03:32:07.977Z,13.43
2019-01-30T03:34:50.523Z,13.63
2019-01-30T03:37:32.625Z,14.67
2019-01-30T03:40:14.793Z,13.77
2019-01-30T03:42:57.165Z,12.90
2019-01-30T03:45:40.023Z,7.17
2019-01-30T03:48:10.665Z,10.20
2019-01-30T03:50:52.419Z,11.23
2019-01-30T03:53:34.247Z,7.93
2019-01-30T03:56:16.641Z,9.57
2019-01-30T03:58:58.367Z,9.97
2019-01-30T04:01:43.192Z,5.40
2019-01-30T04:04:25.207Z,7.13
2019-01-30T04:07:07.416Z,8.30
2019-01-30T04:09:49.729Z,7.80
2019-01-30T04:12:32.004Z,7.53
2019-01-30T04:15:14.022Z,6.57
2019-01-30T04:20:52.598Z,7.00
2019-01-30T04:23:34.350Z,7.30
2019-01-30T04:26:16.604Z,5.47
2019-01-30T04:28:58.323Z,6.73
2019-01-30T04:31:41.606Z,6.20
2019-01-30T04:34:12.475Z,6.93
2019-01-30T04:37:02.103Z,9.20
2019-01-30T04:39:44.281Z,7.70
2019-01-30T04:42:14.692Z,7.20
2019-01-30T04:45:04.466Z,4.70
2019-01-30T04:47:45.955Z,7.13
2019-01-30T04:50:28.276Z,6.73
2019-01-30T04:53:10.911Z,10.47
2019-01-30T04:55:52.629Z,7.23
2019-01-30T04:58:34.700Z,8.13
2019-01-30T05:01:16.833Z,8.67
2019-01-30T05:03:59.163Z,9.70
2019-01-30T05:06:40.804Z,9.30
2019-01-30T05:09:23.067Z,9.20
2019-01-30T05:12:05.128Z,9.17
2019-01-30T05:14:47.473Z,11.47
2019-01-30T05:17:29.714Z,14.10
2019-01-30T05:20:11.956Z,9.27
2019-01-30T05:22:54.263Z,10.13
2019-01-30T05:25:36.584Z,10.97
2019-01-30T05:28:18.725Z,11.00
2019-01-30T05:31:00.710Z,11.13
2019-01-30T05:33:42.619Z,12.27
2019-01-30T05:36:24.844Z,10.90
2019-01-30T05:39:06.112Z,11.57
2019-01-30T05:41:47.362Z,9.70
2019-01-30T05:44:17.779Z,9.87
2019-01-30T05:47:06.557Z,15.93
2019-01-30T05:49:48.155Z,10.20
2019-01-30T05:52:30.284Z,11.83
2019-01-30T05:55:13.100Z,15.93
2019-01-30T05:57:54.704Z,11.20
2019-01-30T06:00:40.327Z,13.93
2019-01-30T06:03:21.956Z,15.13
2019-01-30T06:05:52.340Z,18.87
2019-01-30T06:08:34.336Z,17.10
2019-01-30T06:11:16.634Z,19.60
2019-01-30T06:13:47.027Z,21.53
2019-01-30T06:16:36.651Z,19.33
2019-01-30T06:19:18.281Z,20.80
2019-01-30T06:22:00.577Z,75.87
2019-01-30T06:24:43.034Z,20.50
2019-01-30T06:27:25.385Z,30.30
2019-01-30T06:30:07.777Z,14.67
2019-01-30T06:32:50.014Z,21.37
2019-01-30T06:38:34.244Z,19.57
2019-01-30T06:41:16.248Z,16.83
2019-01-30T06:43:58.489Z,15.83
2019-01-30T06:46:41.142Z,23.43
2019-01-30T06:49:22.832Z,15.27
2019-01-30T06:52:05.315Z,19.10
2019-01-30T06:54:47.410Z,21.43
2019-01-30T06:57:29.583Z,15.87
2019-01-30T07:00:12.347Z,19.70
2019-01-30T07:02:54.846Z,16.30
2019-01-30T07:05:37.172Z,16.73
2019-01-30T07:08:19.186Z,17.93
2019-01-30T07:11:10.351Z,18.67
2019-01-30T07:13:47.154Z,17.73
2019-01-30T07:16:30.484Z,23.80
2019-01-30T07:22:00.890Z,20.17
2019-01-30T07:24:31.303Z,14.60
2019-01-30T07:27:13.476Z,17.00
2019-01-30T07:29:55.730Z,18.90
2019-01-30T07:32:42.342Z,17.70
2019-01-30T07:35:23.030Z,21.63
2019-01-30T07:38:04.919Z,22.57
2019-01-30T07:40:46.648Z,20.53
2019-01-30T07:43:28.440Z,16.10
2019-01-30T07:46:10.655Z,15.47
2019-01-30T07:48:52.661Z,20.43
2019-01-30T07:51:35.068Z,17.03
2019-01-30T07:54:18.419Z,13.23
2019-01-30T07:56:58.168Z,16.03
2019-01-30T07:59:39.754Z,15.97
2019-01-30T08:02:10.296Z,17.23
2019-01-30T08:04:52.880Z,16.17
2019-01-30T08:07:35.453Z,14.37
2019-01-30T08:10:18.285Z,19.00
2019-01-30T08:13:00.226Z,19.70
2019-01-30T08:15:42.473Z,20.60
2019-01-30T08:18:24.268Z,20.23
2019-01-30T08:21:06.421Z,14.53
2019-01-30T08:23:48.829Z,19.62
2019-01-30T08:26:31.001Z,20.30
2019-01-30T08:29:13.385Z,19.57
2019-01-30T08:31:55.390Z,15.07
2019-01-30T08:34:37.396Z,19.60
2019-01-30T08:37:20.450Z,16.40
2019-01-30T08:40:03.109Z,18.93
2019-01-30T08:42:45.084Z,17.23
2019-01-30T08:45:27.418Z,13.50
2019-01-30T08:48:09.643Z,17.47
2019-01-30T08:50:52.200Z,16.60
2019-01-30T08:53:34.588Z,16.20
2019-01-30T08:56:16.920Z,15.63
2019-01-30T08:58:59.281Z,16.13
2019-01-30T09:01:41.672Z,20.23
2019-01-30T09:04:23.773Z,15.50
2019-01-30T09:07:06.080Z,14.67
2019-01-30T09:09:48.951Z,16.43
2019-01-30T09:12:30.982Z,22.60
2019-01-30T09:15:12.771Z,18.83
2019-01-30T09:17:54.813Z,17.13
2019-01-30T09:23:47.561Z,18.60
2019-01-30T09:26:28.913Z,18.03
2019-01-30T09:29:11.497Z,16.23
2019-01-30T09:31:54.064Z,14.73
2019-01-30T09:34:36.131Z,15.37
2019-01-30T09:37:18.483Z,14.23
2019-01-30T09:39:48.871Z,16.63
2019-01-30T09:42:38.369Z,15.37
2019-01-30T09:45:20.038Z,16.63
2019-01-30T09:48:02.023Z,17.23
2019-01-30T09:50:44.420Z,16.00
2019-01-30T09:53:26.751Z,20.20
2019-01-30T09:56:08.901Z,22.20
2019-01-30T09:58:50.837Z,18.17
2019-01-30T10:01:33.222Z,18.03
2019-01-30T10:04:15.446Z,18.53
2019-01-30T10:06:57.516Z,22.43
2019-01-30T10:09:40.090Z,19.07
2019-01-30T10:12:22.505Z,20.53
2019-01-30T10:15:05.030Z,17.77
2019-01-30T10:20:46.256Z,17.43
2019-01-30T10:23:28.293Z,21.23
2019-01-30T10:26:12.737Z,16.23
2019-01-30T10:29:08.896Z,18.50
2019-01-30T10:31:51.310Z,18.67
2019-01-30T10:34:33.100Z,17.60
2019-01-30T10:37:14.982Z,22.33
2019-01-30T10:39:57.107Z,17.73
2019-01-30T10:42:39.245Z,21.20
2019-01-30T10:45:21.327Z,22.80
2019-01-30T10:48:03.089Z,19.87
2019-01-30T10:50:45.056Z,22.77
2019-01-30T10:53:27.470Z,19.20
2019-01-30T10:56:09.259Z,25.27
2019-01-30T10:58:52.830Z,20.47
2019-01-30T11:01:52.261Z,23.10
2019-01-30T11:04:42.689Z,18.10
2019-01-30T11:07:25.036Z,18.90
2019-01-30T11:10:09.056Z,19.60
2019-01-30T11:12:50.920Z,16.37
2019-01-30T11:15:33.095Z,18.23
2019-01-30T11:18:15.070Z,18.83
2019-01-30T11:20:57.500Z,20.90
2019-01-30T11:23:39.355Z,23.00
2019-01-30T11:26:22.572Z,21.80
2019-01-30T11:29:06.305Z,20.37
2019-01-30T11:31:36.804Z,23.53
2019-01-30T11:34:26.392Z,27.93
2019-01-30T11:37:08.601Z,21.73
2019-01-30T11:39:50.421Z,24.93
2019-01-30T11:42:32.535Z,27.93
2019-01-30T11:45:14.556Z,25.13
2019-01-30T11:47:56.936Z,25.87
2019-01-30T11:50:39.039Z,25.17
2019-01-30T11:53:21.070Z,25.83
2019-01-30T11:56:04.618Z,23.67
2019-01-30T11:58:46.726Z,24.17
2019-01-30T12:01:31.126Z,28.90
2019-01-30T12:04:18.042Z,25.57
2019-01-30T12:06:57.612Z,24.77
2019-01-30T12:09:39.318Z,21.60
2019-01-30T12:12:21.243Z,24.27
2019-01-30T12:15:03.112Z,26.57
2019-01-30T12:17:45.155Z,30.27
2019-01-30T12:20:27.542Z,23.23
2019-01-30T12:23:07.240Z,25.70
2019-01-30T12:25:49.578Z,22.87
2019-01-30T12:28:31.845Z,24.00
2019-01-30T12:31:14.243Z,25.40
2019-01-30T12:33:56.353Z,22.50
2019-01-30T12:36:38.672Z,22.97
2019-01-30T12:39:20.810Z,27.17
2019-01-30T12:42:03.394Z,26.37
2019-01-30T12:44:45.316Z,22.73
2019-01-30T12:47:27.620Z,28.20
2019-01-30T12:50:11.021Z,28.40
2019-01-30T12:52:53.263Z,29.37
2019-01-30T12:55:35.264Z,24.23
2019-01-30T12:58:17.690Z,24.63
2019-01-30T13:00:59.955Z,27.90
2019-01-30T13:03:41.784Z,25.27
2019-01-30T13:06:24.074Z,24.30
2019-01-30T13:09:06.285Z,26.30
2019-01-30T13:11:48.587Z,23.47
2019-01-30T13:14:32.236Z,25.83
2019-01-30T13:17:16.797Z,25.37
2019-01-30T13:19:59.048Z,23.90
2019-01-30T13:22:41.038Z,22.17
2019-01-30T13:25:23.507Z,22.17
2019-01-30T13:28:05.644Z,23.37
2019-01-30T13:30:38.499Z,25.20
2019-01-30T13:33:28.032Z,27.57
2019-01-30T13:36:10.130Z,22.83
2019-01-30T13:38:52.340Z,26.53
2019-01-30T13:41:34.695Z,22.03
2019-01-30T13:44:16.503Z,24.40
2019-01-30T13:46:58.572Z,24.67
2019-01-30T13:49:41.035Z,25.20
2019-01-30T13:52:23.504Z,25.20
2019-01-30T13:55:05.171Z,26.47
2019-01-30T13:57:47.688Z,25.30
2019-01-30T14:00:29.945Z,23.70
2019-01-30T14:03:12.011Z,29.50
2019-01-30T14:05:54.025Z,26.40
2019-01-30T14:08:36.684Z,33.27
2019-01-30T14:11:18.778Z,24.77
2019-01-30T14:14:01.206Z,26.93
2019-01-30T14:16:43.465Z,29.73
2019-01-30T14:19:25.197Z,27.90
2019-01-30T14:22:07.177Z,29.17
2019-01-30T14:24:50.382Z,18.90
2019-01-30T14:27:32.005Z,30.13
2019-01-30T14:30:14.268Z,26.40
2019-01-30T14:32:56.582Z,32.07
2019-01-30T14:35:38.893Z,24.17
2019-01-30T14:38:21.028Z,31.17
2019-01-30T14:41:03.060Z,31.47
2019-01-30T14:43:45.352Z,32.20
2019-01-30T14:46:27.331Z,33.97
2019-01-30T14:49:09.428Z,34.87
2019-01-30T14:51:51.757Z,35.47
2019-01-30T14:54:31.411Z,32.43
2019-01-30T14:57:11.147Z,33.10
2019-01-30T14:59:53.263Z,40.57
2019-01-30T15:02:35.240Z,39.93
2019-01-30T15:05:22.275Z,34.97
2019-01-30T15:08:00.615Z,37.77
2019-01-30T15:10:42.999Z,31.87
2019-01-30T15:13:25.078Z,31.40
2019-01-30T15:16:07.611Z,41.80
2019-01-30T15:18:49.848Z,35.63
2019-01-30T15:21:32.360Z,37.80
2019-01-30T15:24:14.895Z,39.70
2019-01-30T15:26:55.419Z,44.67
2019-01-30T15:29:37.863Z,44.70
2019-01-30T15:32:20.821Z,43.43
2019-01-30T15:34:51.173Z,37.30
2019-01-30T15:37:40.801Z,35.90
2019-01-30T15:40:22.487Z,42.77
2019-01-30T15:43:04.181Z,37.00
2019-01-30T15:45:45.931Z,38.90
2019-01-30T15:48:27.859Z,39.27
2019-01-30T15:51:10.000Z,39.33
2019-01-30T15:53:52.312Z,43.90
2019-01-30T15:56:34.198Z,42.93
2019-01-30T15:59:15.952Z,41.93
2019-01-30T16:01:58.055Z,40.57
2019-01-30T16:04:42.870Z,41.73
2019-01-30T16:07:24.660Z,43.60
2019-01-30T16:10:06.992Z,39.23
2019-01-30T16:12:49.556Z,37.37
2019-01-30T16:15:31.514Z,37.57
2019-01-30T16:18:13.168Z,37.73
2019-01-30T16:20:55.290Z,32.57
2019-01-30T16:23:37.523Z,33.33
2019-01-30T16:26:07.831Z,36.60
2019-01-30T16:28:50.144Z,32.20
2019-01-30T16:31:32.072Z,34.70
2019-01-30T16:34:14.291Z,38.50
2019-01-30T16:36:56.727Z,35.43
2019-01-30T16:42:38.555Z,48.07
2019-01-30T16:45:20.660Z,41.67
2019-01-30T16:48:03.027Z,32.63
2019-01-30T16:50:44.992Z,34.30
2019-01-30T16:53:26.963Z,37.97
2019-01-30T16:56:09.017Z,35.30
2019-01-30T16:58:51.104Z,36.07
2019-01-30T17:01:33.338Z,33.57
2019-01-30T17:04:03.666Z,36.50
2019-01-30T17:06:53.048Z,31.57
2019-01-30T17:12:34.368Z,32.60
2019-01-30T17:15:15.905Z,31.73
2019-01-30T17:17:46.616Z,30.63
2019-01-30T17:20:36.519Z,33.00
2019-01-30T17:23:18.799Z,32.53
2019-01-30T17:26:01.459Z,33.33
2019-01-30T17:28:43.622Z,30.50
2019-01-30T17:31:25.967Z,31.33
2019-01-30T17:34:08.108Z,33.17
2019-01-30T17:36:50.297Z,29.50
2019-01-30T17:39:32.617Z,32.00
2019-01-30T17:42:15.134Z,33.07
2019-01-30T17:44:57.496Z,32.87
2019-01-30T17:47:39.447Z,29.87
2019-01-30T17:50:21.487Z,30.30
2019-01-30T17:53:03.655Z,31.50
2019-01-30T17:55:46.247Z,29.37
2019-01-30T17:58:16.655Z,30.10
2019-01-30T18:01:00.792Z,32.27
2019-01-30T18:03:43.098Z,33.27
2019-01-30T18:06:29.936Z,31.27
2019-01-30T18:09:08.922Z,32.43
2019-01-30T18:11:51.331Z,35.93
2019-01-30T18:14:33.864Z,35.23
2019-01-30T18:17:16.052Z,32.97
2019-01-30T18:19:57.019Z,31.00
2019-01-30T18:22:39.268Z,33.30
2019-01-30T18:25:21.292Z,29.17
2019-01-30T18:28:03.308Z,27.07
2019-01-30T18:30:45.358Z,31.10
2019-01-30T18:33:27.624Z,26.20
2019-01-30T18:36:10.043Z,26.00
2019-01-30T18:38:52.160Z,24.33
2019-01-30T18:41:34.450Z,26.70
2019-01-30T18:44:17.078Z,24.67
2019-01-30T18:46:58.896Z,27.50
2019-01-30T18:49:42.035Z,26.53
2019-01-30T18:52:23.992Z,23.83
2019-01-30T18:55:06.281Z,22.23
2019-01-30T18:57:48.828Z,22.83
2019-01-30T19:00:30.857Z,23.17
2019-01-30T19:03:13.083Z,21.97
2019-01-30T19:05:55.127Z,23.27
2019-01-30T19:08:37.372Z,24.20
2019-01-30T19:11:19.572Z,24.37
2019-01-30T19:14:01.937Z,24.53
2019-01-30T19:16:44.032Z,22.50
2019-01-30T19:19:25.860Z,22.07
2019-01-30T19:22:10.247Z,24.77
2019-01-30T19:24:51.587Z,24.00
2019-01-30T19:27:33.535Z,22.33
2019-01-30T19:30:15.931Z,20.23
2019-01-30T19:32:59.304Z,23.07
2019-01-30T19:35:41.324Z,22.70
2019-01-30T19:38:23.699Z,27.43
2019-01-30T19:40:54.168Z,24.43
2019-01-30T19:43:43.596Z,23.00
2019-01-30T19:46:25.221Z,21.13
2019-01-30T19:49:07.126Z,21.93
2019-01-30T19:51:49.186Z,22.50
2019-01-30T19:54:31.652Z,18.60
2019-01-30T19:57:13.384Z,21.27
2019-01-30T19:59:55.397Z,23.40
2019-01-30T20:02:37.776Z,22.07
2019-01-30T20:05:19.548Z,21.93
2019-01-30T20:08:01.711Z,21.57
2019-01-30T20:10:44.104Z,20.93
2019-01-30T20:13:26.169Z,20.70
2019-01-30T20:16:08.526Z,19.27
2019-01-30T20:18:50.696Z,19.73
2019-01-30T20:21:33.031Z,20.73
2019-01-30T20:24:14.908Z,20.33
2019-01-30T20:26:57.519Z,23.37
2019-01-30T20:29:37.259Z,21.83
2019-01-30T20:32:19.670Z,19.73
2019-01-30T20:35:01.436Z,24.40
2019-01-30T20:37:43.656Z,24.60
2019-01-30T20:40:25.664Z,20.70
2019-01-30T20:43:07.243Z,23.83
2019-01-30T20:45:49.036Z,23.43
2019-01-30T20:48:29.501Z,18.87
2019-01-30T20:51:11.296Z,21.37
2019-01-30T20:53:53.888Z,18.27
2019-01-30T20:56:36.117Z,23.70
2019-01-30T20:59:18.128Z,20.93
2019-01-30T21:02:00.012Z,24.57
2019-01-30T21:04:42.180Z,22.93
2019-01-30T21:07:24.339Z,20.77
2019-01-30T21:10:06.588Z,16.83
2019-01-30T21:12:48.776Z,20.00
2019-01-30T21:15:30.859Z,19.87
2019-01-30T21:18:13.000Z,18.40
2019-01-30T21:20:55.438Z,19.87
2019-01-30T21:23:37.400Z,19.27
2019-01-30T21:26:19.627Z,20.00
2019-01-30T21:29:02.020Z,15.80
2019-01-30T21:31:43.992Z,21.80
2019-01-30T21:34:26.356Z,20.33
2019-01-30T21:37:08.302Z,15.13
2019-01-30T21:39:50.378Z,19.27
2019-01-30T21:42:32.632Z,19.57
2019-01-30T21:45:14.564Z,16.23
2019-01-30T21:47:57.005Z,18.67
2019-01-30T21:50:45.786Z,20.30
2019-01-30T21:56:34.152Z,18.70
2019-01-30T21:59:16.424Z,21.87
2019-01-30T22:02:08.007Z,19.10
2019-01-30T22:04:44.319Z,18.43
2019-01-30T22:07:26.160Z,20.13
2019-01-30T22:10:07.985Z,18.63
2019-01-30T22:18:45.392Z,19.83
2019-01-30T22:21:27.436Z,17.63
2019-01-30T22:24:09.044Z,17.90
2019-01-30T22:26:51.461Z,19.97
2019-01-30T22:29:33.437Z,18.33
2019-01-30T22:32:15.401Z,17.47
2019-01-30T22:34:57.800Z,18.10
2019-01-30T22:37:40.038Z,17.90
2019-01-30T22:43:24.375Z,16.17
2019-01-30T22:46:06.424Z,20.53
2019-01-30T22:48:48.651Z,15.07
2019-01-30T22:51:30.715Z,19.40
2019-01-30T22:54:12.683Z,15.93
2019-01-30T22:56:55.099Z,17.63
2019-01-30T23:02:18.217Z,14.87
2019-01-30T23:05:00.351Z,18.23
2019-01-30T23:07:42.472Z,20.03
2019-01-30T23:10:24.597Z,17.60
2019-01-30T23:13:06.781Z,17.07
2019-01-30T23:15:48.882Z,18.13
2019-01-30T23:18:31.003Z,16.40
2019-01-30T23:21:12.848Z,17.93
2019-01-30T23:26:53.280Z,19.43
2019-01-30T23:29:35.852Z,17.63
2019-01-30T23:32:18.272Z,15.10
2019-01-30T23:35:00.682Z,15.63
2019-01-30T23:37:43.032Z,16.17
2019-01-30T23:40:25.241Z,16.00
2019-01-30T23:43:07.225Z,14.63
2019-01-30T23:45:49.092Z,17.30
2019-01-30T23:48:31.232Z,15.57
2019-01-30T23:51:12.974Z,15.00
2019-01-30T23:53:55.023Z,17.60
2019-01-30T23:56:36.575Z,13.90
2019-01-30T23:59:18.663Z,15.60
